Time;durP1;ratioP1;P1;durP2;ratioP2;P2;SDS_P1;SDS_P2;PMS_P1;PMS_P2;Temp;Humidity;BMP_temperature;BMP_pressure;BME280_temperature;BME280_humidity;BME280_pressure;Samples;Min_cycle;Max_cycle;Signal;HPM_P1;HPM_P2
2022/02/14 00:01:21;;;;;;;6.23;4.30;;;0.50;96.30;;;;;;5040818;28;20203;-81
2022/02/14 00:03:47;;;;;;;5.33;4.23;;;0.50;96.30;;;;;;5022665;28;20586;-81
2022/02/14 00:06:12;;;;;;;9.60;4.33;;;0.30;96.30;;;;;;5022577;28;20172;-82
2022/02/14 00:08:38;;;;;;;6.30;4.17;;;0.10;96.30;;;;;;5041125;28;20434;-81
2022/02/14 00:11:03;;;;;;;8.57;4.57;;;0.00;96.30;;;;;;5023462;28;20225;-81
2022/02/14 00:13:30;;;;;;;8.07;4.43;;;0.00;96.30;;;;;;5023488;28;20176;-81
2022/02/14 00:15:56;;;;;;;4.43;3.20;;;-0.20;96.30;;;;;;5023635;28;20593;-81
2022/02/14 00:18:21;;;;;;;5.13;3.57;;;-0.20;96.30;;;;;;5041616;28;20497;-81
2022/02/14 00:20:47;;;;;;;6.50;4.13;;;0.00;96.30;;;;;;5023818;28;20203;-81
2022/02/14 00:23:12;;;;;;;7.80;5.33;;;0.00;96.30;;;;;;5022878;28;20203;-81
2022/02/14 00:25:38;;;;;;;9.47;5.27;;;0.10;96.30;;;;;;5041289;28;20629;-81
2022/02/14 00:28:03;;;;;;;12.70;5.93;;;0.10;96.30;;;;;;5041363;28;20184;-81
2022/02/14 00:30:30;;;;;;;13.20;5.63;;;0.20;96.30;;;;;;5023526;28;20220;-81
2022/02/14 00:32:56;;;;;;;7.27;4.83;;;0.20;96.30;;;;;;5041734;28;20168;-81
2022/02/14 00:35:21;;;;;;;9.60;5.27;;;0.30;96.30;;;;;;5023753;28;20430;-81
2022/02/14 00:37:48;;;;;;;7.20;5.13;;;0.30;96.30;;;;;;5027730;28;20238;-81
2022/02/14 00:40:14;;;;;;;11.90;5.90;;;0.30;96.30;;;;;;5021555;28;20176;-81
2022/02/14 00:42:40;;;;;;;7.50;4.03;;;0.30;96.30;;;;;;5021711;28;20439;-81
2022/02/14 00:45:06;;;;;;;7.57;4.20;;;0.30;96.30;;;;;;5020971;28;20547;-81
2022/02/14 00:47:31;;;;;;;11.20;5.80;;;0.30;96.30;;;;;;5021447;28;20176;-81
2022/02/14 00:49:57;;;;;;;8.53;4.87;;;0.30;96.30;;;;;;5021433;28;20434;-81
2022/02/14 00:52:23;;;;;;;11.30;5.53;;;0.10;96.30;;;;;;5038845;28;20680;-81
2022/02/14 00:54:52;;;;;;;13.60;6.20;;;0.10;96.30;;;;;;5020882;28;20181;-82
2022/02/14 00:57:17;;;;;;;16.63;5.73;;;0.10;96.30;;;;;;5020831;28;20860;-81
2022/02/14 00:59:43;;;;;;;9.57;4.73;;;0.10;96.30;;;;;;5020440;28;20419;-81
2022/02/14 05:00:22;;;;;;;7.00;3.80;;;0.90;96.30;;;;;;6020556;23;20383;-82
2022/02/14 05:02:47;;;;;;;5.53;2.57;;;0.90;96.30;;;;;;5021091;28;20429;-82
2022/02/14 05:05:13;;;;;;;3.97;2.30;;;0.90;96.30;;;;;;5020928;28;20443;-82
2022/02/14 05:07:39;;;;;;;6.83;3.03;;;0.90;96.30;;;;;;5039696;28;20172;-82
2022/02/14 05:10:06;;;;;;;5.83;3.10;;;0.80;96.30;;;;;;5040264;28;20204;-81
2022/02/14 05:12:32;;;;;;;5.87;2.40;;;0.70;96.30;;;;;;5040692;28;20215;-81
2022/02/14 05:14:58;;;;;;;4.93;3.03;;;0.70;96.30;;;;;;5039879;28;20914;-77
2022/02/14 05:17:23;;;;;;;6.80;3.20;;;0.70;96.30;;;;;;5026142;28;20430;-81
2022/02/14 05:19:49;;;;;;;5.20;3.20;;;0.80;96.30;;;;;;5027742;28;20271;-81
2022/02/14 05:22:14;;;;;;;6.60;3.30;;;0.70;96.30;;;;;;5027243;28;20204;-81
2022/02/14 05:24:40;;;;;;;6.70;3.73;;;0.80;96.30;;;;;;5025765;28;20266;-81
2022/02/14 05:27:05;;;;;;;5.97;3.50;;;1.10;96.30;;;;;;5026133;28;20198;-81
2022/02/14 05:29:31;;;;;;;5.60;3.90;;;1.10;96.30;;;;;;5042478;28;20168;-81
2022/02/14 05:31:58;;;;;;;10.40;4.80;;;1.10;96.30;;;;;;5024009;28;20302;-80
2022/02/14 05:34:23;;;;;;;6.03;3.97;;;1.00;96.30;;;;;;5024007;28;20176;-82
2022/02/14 05:36:49;;;;;;;8.57;3.60;;;0.90;96.30;;;;;;5024413;28;20419;-81
2022/02/14 05:39:14;;;;;;;6.70;3.90;;;1.00;96.30;;;;;;5022336;28;20539;-80
2022/02/14 05:41:39;;;;;;;8.97;4.30;;;0.90;96.30;;;;;;5018484;28;20787;-82
2022/02/14 05:44:05;;;;;;;5.40;3.60;;;0.80;96.30;;;;;;5000447;28;20169;-81
2022/02/14 05:46:31;;;;;;;8.40;3.43;;;0.90;96.30;;;;;;5019125;28;20196;-79
2022/02/14 05:48:57;;;;;;;7.50;4.40;;;0.80;96.30;;;;;;5017780;28;20183;-80
2022/02/14 05:51:23;;;;;;;7.30;4.60;;;0.80;96.30;;;;;;5017134;28;20947;-80
2022/02/14 05:53:49;;;;;;;5.47;4.10;;;0.80;96.30;;;;;;5000831;28;20177;-80
2022/02/14 05:56:15;;;;;;;8.37;4.27;;;0.80;96.30;;;;;;5000207;28;20420;-81
2022/02/14 05:58:42;;;;;;;9.23;5.00;;;0.80;96.30;;;;;;5017567;28;21057;-81
2022/02/14 06:01:07;;;;;;;7.27;4.27;;;0.80;96.30;;;;;;5019896;28;20481;-80
2022/02/14 06:03:33;;;;;;;5.27;3.80;;;0.70;96.30;;;;;;5004846;28;20491;-80
2022/02/14 06:05:58;;;;;;;9.90;5.27;;;0.70;96.30;;;;;;5006367;28;20173;-80
2022/02/14 06:08:24;;;;;;;12.47;4.50;;;0.70;96.30;;;;;;5014722;28;20180;-80
2022/02/14 06:10:49;;;;;;;8.70;4.57;;;0.60;96.30;;;;;;5041990;28;20706;-79
2022/02/14 06:13:16;;;;;;;9.10;3.90;;;0.70;96.30;;;;;;5041416;28;20227;-81
2022/02/14 06:15:41;;;;;;;11.70;4.40;;;0.70;96.30;;;;;;5025542;28;20230;-80
2022/02/14 06:18:07;;;;;;;11.33;4.93;;;0.70;96.30;;;;;;5024285;28;20537;-79
2022/02/14 06:20:33;;;;;;;7.80;4.23;;;0.60;96.30;;;;;;5020259;28;20192;-78
2022/02/14 06:22:58;;;;;;;9.90;4.30;;;0.60;96.30;;;;;;5031967;28;20318;-78
2022/02/14 06:25:24;;;;;;;10.13;4.20;;;0.70;96.30;;;;;;4993899;28;20180;-79
2022/02/14 06:27:49;;;;;;;16.83;5.30;;;0.70;96.30;;;;;;4984178;28;20819;-78
2022/02/14 06:30:15;;;;;;;8.23;4.90;;;0.60;96.30;;;;;;5010601;28;20255;-77
2022/02/14 06:32:40;;;;;;;11.93;5.47;;;0.60;96.30;;;;;;4995090;28;20534;-77
2022/02/14 06:35:06;;;;;;;6.50;4.80;;;0.70;96.30;;;;;;5008729;28;20184;-77
2022/02/14 06:37:32;;;;;;;13.20;5.50;;;0.90;96.30;;;;;;4994312;28;20292;-77
2022/02/14 06:39:57;;;;;;;7.50;4.67;;;1.10;96.30;;;;;;4992899;28;20181;-77
2022/02/14 06:42:23;;;;;;;14.20;5.00;;;1.20;96.30;;;;;;4994261;28;20197;-78
2022/02/14 06:44:48;;;;;;;9.83;5.43;;;1.40;96.30;;;;;;4994482;28;20728;-82
2022/02/14 06:47:14;;;;;;;9.37;5.80;;;1.60;96.30;;;;;;4991850;28;20181;-77
2022/02/14 06:49:40;;;;;;;15.00;5.30;;;1.70;96.30;;;;;;5012511;28;20244;-78
2022/02/14 06:52:05;;;;;;;15.37;5.53;;;1.80;96.30;;;;;;4992818;28;20742;-81
2022/02/14 06:54:31;;;;;;;16.80;7.53;;;2.20;96.30;;;;;;4991338;28;20268;-81
2022/02/14 06:56:56;;;;;;;8.77;5.67;;;2.50;96.30;;;;;;4996649;28;20189;-80
2022/02/14 06:59:22;;;;;;;11.43;5.93;;;2.60;96.30;;;;;;4993787;28;20196;-80
2022/02/14 07:01:48;;;;;;;8.60;5.30;;;2.90;96.30;;;;;;5000034;28;20231;-80
2022/02/14 07:04:14;;;;;;;19.00;6.17;;;2.90;96.30;;;;;;5000485;28;20633;-81
2022/02/14 07:06:39;;;;;;;10.67;6.13;;;2.90;96.30;;;;;;4996139;28;20442;-80
2022/02/14 07:09:05;;;;;;;16.90;5.70;;;2.90;96.30;;;;;;4986672;28;20213;-81
2022/02/14 07:11:30;;;;;;;8.00;4.50;;;3.00;96.30;;;;;;5006761;28;20201;-81
2022/02/14 07:13:56;;;;;;;8.40;4.97;;;3.00;96.30;;;;;;4999347;28;20212;-81
2022/02/14 07:16:21;;;;;;;12.60;6.53;;;2.90;96.30;;;;;;5001236;28;20188;-80
2022/02/14 07:18:47;;;;;;;10.50;5.73;;;2.60;96.30;;;;;;5001619;28;20204;-79
2022/02/14 07:21:12;;;;;;;11.60;6.70;;;2.50;96.30;;;;;;5018285;28;20193;-80
2022/02/14 07:23:38;;;;;;;13.80;6.40;;;2.40;96.30;;;;;;4983101;28;20249;-79
2022/02/14 07:26:04;;;;;;;8.23;5.50;;;2.40;96.30;;;;;;4997776;28;20174;-80
2022/02/14 07:28:29;;;;;;;16.10;5.57;;;2.30;96.30;;;;;;4998272;28;20264;-80
2022/02/14 07:30:55;;;;;;;10.63;4.63;;;2.30;96.30;;;;;;4979957;28;20301;-79
2022/02/14 07:33:20;;;;;;;10.63;5.60;;;2.30;96.30;;;;;;5000857;28;20215;-80
2022/02/14 07:35:46;;;;;;;18.67;7.80;;;2.40;96.30;;;;;;5024347;28;20670;-80
2022/02/14 07:38:12;;;;;;;13.13;6.40;;;2.40;96.30;;;;;;5002719;28;20370;-79
2022/02/14 07:40:38;;;;;;;5.87;3.00;;;2.50;96.30;;;;;;4981624;28;20732;-79
2022/02/14 07:43:03;;;;;;;5.13;3.50;;;2.70;96.30;;;;;;4989758;28;20211;-80
2022/02/14 07:45:29;;;;;;;6.13;3.57;;;2.70;96.30;;;;;;4998642;28;20216;-80
2022/02/14 07:47:55;;;;;;;4.83;3.30;;;2.80;96.30;;;;;;5015908;28;20248;-80
2022/02/14 07:50:23;;;;;;;9.17;4.10;;;2.80;96.30;;;;;;5016355;28;20657;-80
2022/02/14 07:52:49;;;;;;;4.30;3.17;;;2.70;96.30;;;;;;5012216;28;20550;-80
2022/02/14 07:55:15;;;;;;;6.50;3.60;;;2.80;96.30;;;;;;4997639;28;20420;-79
2022/02/14 07:57:40;;;;;;;5.13;2.97;;;2.90;96.30;;;;;;4998757;28;20470;-79
2022/02/14 08:00:07;;;;;;;4.90;3.23;;;3.10;96.30;;;;;;4997880;28;20657;-77
2022/02/14 08:02:32;;;;;;;6.37;3.10;;;3.20;96.30;;;;;;5014654;28;20668;-77
2022/02/14 08:04:58;;;;;;;4.30;2.73;;;3.30;96.30;;;;;;4998471;28;20406;-79
2022/02/14 08:07:23;;;;;;;4.37;2.10;;;3.40;96.30;;;;;;5008193;28;21504;-80
2022/02/14 08:09:51;;;;;;;4.10;2.90;;;3.50;96.30;;;;;;4982773;28;20224;-79
2022/02/14 08:12:17;;;;;;;3.27;2.90;;;3.50;96.30;;;;;;4995624;28;20272;-80
2022/02/14 08:14:45;;;;;;;5.03;2.87;;;3.60;96.30;;;;;;4997497;28;20491;-76
2022/02/14 08:17:10;;;;;;;7.93;3.23;;;3.70;96.30;;;;;;5014755;28;20427;-77
2022/02/14 08:19:36;;;;;;;3.60;3.00;;;3.80;96.30;;;;;;5014873;28;20491;-78
2022/02/14 08:22:01;;;;;;;3.40;3.10;;;3.90;96.30;;;;;;4997211;28;20239;-76
2022/02/14 08:24:27;;;;;;;3.97;2.60;;;4.00;96.30;;;;;;4997300;28;20671;-76
2022/02/14 08:26:53;;;;;;;2.73;2.37;;;4.20;96.30;;;;;;5010110;28;20672;-76
2022/02/14 08:29:18;;;;;;;5.73;3.20;;;4.20;96.30;;;;;;5012312;28;20259;-76
2022/02/14 08:31:45;;;;;;;5.07;2.83;;;4.30;96.30;;;;;;4994543;28;20194;-80
2022/02/14 08:34:11;;;;;;;3.97;2.40;;;4.40;96.30;;;;;;4994638;28;20170;-76
2022/02/14 08:36:37;;;;;;;7.63;3.50;;;4.40;96.30;;;;;;5002361;28;20427;-76
2022/02/14 08:39:02;;;;;;;5.53;3.10;;;4.40;96.30;;;;;;5033717;28;20250;-79
2022/02/14 08:41:28;;;;;;;5.40;3.00;;;4.40;96.30;;;;;;5033736;28;20189;-76
2022/02/14 08:43:53;;;;;;;3.40;2.23;;;4.50;96.30;;;;;;5033628;28;20183;-76
2022/02/14 08:46:20;;;;;;;5.13;2.90;;;4.70;96.30;;;;;;5033651;28;20164;-76
2022/02/14 08:48:50;;;;;;;3.20;2.70;;;5.00;96.30;;;;;;5033761;28;20176;-76
2022/02/14 08:51:18;;;;;;;2.27;1.60;;;5.20;96.30;;;;;;5015774;28;20439;-76
2022/02/14 08:53:45;;;;;;;3.80;1.97;;;5.70;91.60;;;;;;5014539;28;20412;-76
2022/02/14 08:56:11;;;;;;;2.03;1.50;;;6.00;90.20;;;;;;5013503;28;20420;-75
2022/02/14 08:58:39;;;;;;;4.30;2.03;;;6.40;87.70;;;;;;4995975;28;20471;-75
2022/02/14 09:01:06;;;;;;;22.67;2.00;;;6.50;88.10;;;;;;4983397;28;20216;-78
2022/02/14 09:03:32;;;;;;;7.77;2.40;;;6.50;87.50;;;;;;5001944;28;20485;-80
2022/02/14 09:05:57;;;;;;;3.33;1.70;;;6.70;84.80;;;;;;4994734;28;20821;-79
2022/02/14 09:08:24;;;;;;;3.13;1.70;;;7.00;83.00;;;;;;5013459;28;20503;-76
2022/02/14 09:10:51;;;;;;;2.60;1.57;;;7.00;82.50;;;;;;5013393;28;20200;-76
2022/02/14 09:13:17;;;;;;;5.40;2.20;;;7.00;82.20;;;;;;4995824;28;20486;-76
2022/02/14 09:15:42;;;;;;;5.80;1.77;;;7.10;81.40;;;;;;4995673;28;20923;-77
2022/02/14 09:18:08;;;;;;;4.87;1.63;;;7.20;81.10;;;;;;5013394;28;20208;-79
2022/02/14 09:20:33;;;;;;;6.03;1.60;;;7.30;79.30;;;;;;5012888;28;20200;-76
2022/02/14 09:23:00;;;;;;;2.23;1.70;;;7.40;78.00;;;;;;5013541;28;20693;-76
2022/02/14 09:25:26;;;;;;;3.00;1.57;;;7.50;77.40;;;;;;5012982;28;20173;-76
2022/02/14 09:27:51;;;;;;;5.83;1.40;;;7.60;76.30;;;;;;4987383;28;20481;-76
2022/02/14 09:30:17;;;;;;;2.13;1.23;;;7.80;76.00;;;;;;5005965;28;20189;-79
2022/02/14 09:32:43;;;;;;;3.20;1.70;;;7.80;76.00;;;;;;4977591;28;20668;-79
2022/02/14 09:35:09;;;;;;;2.60;1.30;;;7.90;75.50;;;;;;4988507;28;20435;-79
2022/02/14 09:37:34;;;;;;;3.00;1.90;;;7.90;76.60;;;;;;4996943;28;20699;-79
2022/02/14 09:40:00;;;;;;;3.70;1.80;;;7.90;77.10;;;;;;5014784;28;20177;-79
2022/02/14 09:42:26;;;;;;;3.60;1.87;;;8.00;76.60;;;;;;5000978;28;20616;-79
2022/02/14 09:44:51;;;;;;;4.37;1.77;;;8.10;75.00;;;;;;4977346;28;20272;-80
2022/02/14 09:47:17;;;;;;;5.90;4.10;;;8.30;73.30;;;;;;4998184;28;20274;-79
2022/02/14 09:49:43;;;;;;;2.77;1.90;;;8.40;73.30;;;;;;4996067;28;20543;-80
2022/02/14 09:52:11;;;;;;;1.97;1.43;;;8.40;72.10;;;;;;4992192;28;20436;-79
2022/02/14 09:54:37;;;;;;;1.77;1.10;;;8.50;73.20;;;;;;4996090;28;20189;-80
2022/02/14 09:57:03;;;;;;;5.23;1.77;;;8.60;71.90;;;;;;4993996;28;20424;-79
2022/02/14 09:59:29;;;;;;;2.90;1.33;;;8.70;71.90;;;;;;4988176;28;20460;-79
2022/02/14 10:01:54;;;;;;;5.13;1.73;;;8.80;71.20;;;;;;4999934;28;20748;-80
2022/02/14 10:04:22;;;;;;;3.57;1.63;;;8.90;71.00;;;;;;4995144;28;21570;-79
2022/02/14 10:06:50;;;;;;;3.93;1.50;;;8.90;71.00;;;;;;4998110;28;20786;-80
2022/02/14 10:09:24;;;;;;;2.37;1.77;;;9.00;71.20;;;;;;4986328;28;21093;-80
2022/02/14 10:11:58;;;;;;;2.90;1.43;;;9.10;71.50;;;;;;5013318;28;20435;-80
2022/02/14 10:14:24;;;;;;;2.60;1.60;;;9.20;71.00;;;;;;5014858;28;20416;-80
2022/02/14 10:17:00;;;;;;;2.80;1.50;;;9.20;70.90;;;;;;5018551;28;20423;-79
2022/02/14 10:19:26;;;;;;;3.53;1.67;;;9.30;70.30;;;;;;4983643;28;20197;-80
2022/02/14 10:21:52;;;;;;;5.43;0.77;;;9.40;71.00;;;;;;4982985;28;20455;-80
2022/02/14 10:24:18;;;;;;;2.80;1.20;;;9.40;69.70;;;;;;5013579;28;20412;-80
2022/02/14 10:26:50;;;;;;;3.87;1.60;;;9.40;69.90;;;;;;5012624;28;20169;-80
2022/02/14 10:29:20;;;;;;;4.63;1.50;;;9.50;69.50;;;;;;4995927;28;20690;-80
2022/02/14 10:31:49;;;;;;;7.40;1.67;;;9.80;69.60;;;;;;4995773;28;20447;-80
2022/02/14 10:34:16;;;;;;;2.70;1.27;;;10.20;69.60;;;;;;5016632;28;20410;-80
2022/02/14 10:36:44;;;;;;;1.80;1.37;;;10.80;68.50;;;;;;5029851;28;20938;-80
2022/02/14 10:39:21;;;;;;;1.63;1.40;;;11.40;67.30;;;;;;5018312;28;20969;-80
2022/02/14 10:41:50;;;;;;;3.90;1.60;;;11.80;66.90;;;;;;5018781;28;20438;-80
2022/02/14 10:45:07;;;;;;;2.53;1.63;;;12.20;66.40;;;;;;5036684;28;20410;-80
2022/02/14 10:47:08;;;;;;;3.00;1.80;;;12.10;66.00;;;;;;5013253;28;20924;-80
2022/02/14 10:49:34;;;;;;;6.27;4.17;;;12.30;65.90;;;;;;4979812;28;20416;-80
2022/02/14 10:52:10;;;;;;;1.73;1.60;;;12.40;65.40;;;;;;5005688;28;20443;-80
2022/02/14 10:54:41;;;;;;;5.60;2.00;;;12.40;63.60;;;;;;5004410;28;20201;-80
2022/02/14 10:57:26;;;;;;;3.90;1.40;;;12.50;65.50;;;;;;5001876;28;20761;-80
2022/02/14 11:00:05;;;;;;;3.70;1.67;;;12.60;63.60;;;;;;4994716;28;20510;-81
2022/02/14 11:02:31;;;;;;;6.03;2.00;;;12.90;64.10;;;;;;5016997;28;20961;-81
2022/02/14 11:04:57;;;;;;;3.77;1.43;;;13.00;63.50;;;;;;5026388;28;20421;-80
2022/02/14 11:07:25;;;;;;;3.20;1.23;;;12.90;64.00;;;;;;4983725;28;20823;-80
2022/02/14 11:09:53;;;;;;;6.10;2.90;;;12.70;63.10;;;;;;4986559;28;20459;-79
2022/02/14 11:12:19;;;;;;;3.10;1.53;;;12.50;64.50;;;;;;5011493;28;20424;-80
2022/02/14 11:14:56;;;;;;;7.53;2.60;;;12.60;65.20;;;;;;5002260;28;20878;-77
2022/02/14 11:17:25;;;;;;;5.85;2.70;;;12.70;65.60;;;;;;5018519;28;20418;-77
2022/02/14 11:19:54;;;;;;;2.83;2.03;;;12.20;65.90;;;;;;5002270;28;20423;-77
2022/02/14 11:22:19;;;;;;;2.90;2.00;;;12.30;65.40;;;;;;5018600;28;20434;-76
2022/02/14 11:24:51;;;;;;;3.60;1.90;;;12.50;65.30;;;;;;4996661;28;20408;-77
2022/02/14 11:27:22;;;;;;;4.60;2.63;;;12.70;66.40;;;;;;5015731;28;20169;-77
2022/02/14 11:29:52;;;;;;;2.87;1.97;;;12.40;66.80;;;;;;5015536;28;20404;-79
2022/02/14 13:03:04;;;;;;;9.53;2.70;;;11.40;70.60;;;;;;5322660;23;21020;-80
2022/02/14 13:05:31;;;;;;;9.80;2.90;;;11.50;69.90;;;;;;5032087;28;20410;-79
2022/02/14 13:08:01;;;;;;;3.90;2.73;;;11.50;70.40;;;;;;5015269;28;20484;-78
2022/02/14 13:10:27;;;;;;;6.43;3.00;;;11.50;69.90;;;;;;5033184;28;20383;-78
2022/02/14 13:12:58;;;;;;;7.30;2.83;;;11.50;69.40;;;;;;5033244;28;20404;-78
2022/02/14 13:15:24;;;;;;;5.50;2.63;;;11.30;71.20;;;;;;5015369;28;20211;-79
2022/02/14 13:17:49;;;;;;;3.90;2.93;;;10.80;71.30;;;;;;5032899;28;20438;-78
2022/02/14 13:20:15;;;;;;;5.40;3.10;;;10.80;72.00;;;;;;5032909;28;20176;-78
2022/02/14 13:22:41;;;;;;;11.53;4.23;;;10.80;71.20;;;;;;5033119;28;20182;-78
2022/02/14 13:25:15;;;;;;;3.90;2.80;;;10.60;71.70;;;;;;5033135;28;20174;-78
2022/02/14 13:27:42;;;;;;;2.93;2.30;;;10.20;72.70;;;;;;5015515;28;20211;-80
2022/02/14 13:30:11;;;;;;;8.43;3.53;;;10.30;72.90;;;;;;5032605;28;20415;-79
2022/02/14 13:32:39;;;;;;;6.27;3.10;;;10.20;75.10;;;;;;5032929;28;20462;-79
2022/02/14 13:35:05;;;;;;;5.63;3.90;;;10.10;74.10;;;;;;5032846;28;20803;-80
2022/02/14 13:37:44;;;;;;;8.17;4.47;;;10.00;77.80;;;;;;5015053;28;20431;-80
2022/02/14 13:40:26;;;;;;;8.30;4.70;;;9.70;80.20;;;;;;5024587;28;20186;-80
2022/02/14 13:43:07;;;;;;;11.93;4.63;;;9.40;81.20;;;;;;5002339;28;20953;-81
2022/02/14 13:45:43;;;;;;;11.90;6.87;;;9.40;81.60;;;;;;5015127;28;20512;-81
2022/02/14 13:48:15;;;;;;;8.70;5.53;;;9.00;83.10;;;;;;5015090;28;20422;-79
2022/02/14 13:50:41;;;;;;;9.20;5.73;;;9.20;82.70;;;;;;5033193;28;20493;-79
2022/02/14 13:53:18;;;;;;;12.00;4.07;;;9.00;82.80;;;;;;5034159;28;20418;-80
2022/02/14 13:55:43;;;;;;;7.40;5.00;;;9.20;82.00;;;;;;5027631;28;20521;-81
2022/02/14 13:58:09;;;;;;;13.63;5.40;;;9.40;82.30;;;;;;5034508;28;20866;-81
2022/02/14 14:00:34;;;;;;;7.20;5.17;;;9.60;82.80;;;;;;5035536;28;20219;-80
2022/02/14 14:03:02;;;;;;;10.73;4.80;;;9.70;81.60;;;;;;5017294;28;20266;-81
2022/02/14 14:05:38;;;;;;;13.07;8.17;;;9.70;81.10;;;;;;5015917;28;20172;-81
2022/02/14 14:08:05;;;;;;;7.97;3.57;;;9.80;80.70;;;;;;5016377;28;20429;-81
2022/02/14 14:10:42;;;;;;;10.47;5.07;;;9.90;79.30;;;;;;5015766;28;20438;-81
2022/02/14 14:13:13;;;;;;;7.47;3.23;;;10.30;78.70;;;;;;5016268;28;20441;-81
2022/02/14 14:15:40;;;;;;;8.20;4.20;;;10.50;77.10;;;;;;5037032;28;20467;-81
2022/02/14 14:18:08;;;;;;;10.33;5.17;;;10.50;78.30;;;;;;5033368;28;20488;-82
2022/02/14 14:20:34;;;;;;;10.33;5.20;;;10.80;78.40;;;;;;5032812;28;20442;-81
2022/02/14 14:22:59;;;;;;;8.83;5.53;;;10.60;77.30;;;;;;5014659;28;20499;-81
2022/02/14 14:25:28;;;;;;;6.43;3.50;;;10.50;78.00;;;;;;5015128;28;20509;-81
2022/02/14 14:27:54;;;;;;;8.20;3.53;;;10.20;77.80;;;;;;5033450;28;20225;-81
2022/02/14 14:30:20;;;;;;;11.40;5.67;;;10.40;77.80;;;;;;5015926;28;20437;-81
2022/02/14 14:32:46;;;;;;;8.13;4.63;;;10.10;80.00;;;;;;5015656;28;20415;-81
2022/02/14 14:35:12;;;;;;;4.90;3.17;;;9.90;79.90;;;;;;5015545;28;20183;-82
2022/02/14 14:37:38;;;;;;;4.70;3.57;;;9.70;79.70;;;;;;5015233;28;20464;-81
2022/02/14 14:40:05;;;;;;;3.87;2.63;;;9.50;81.30;;;;;;5015426;28;20411;-81
2022/02/14 14:42:31;;;;;;;6.60;4.30;;;9.30;81.60;;;;;;5033010;28;20984;-82
2022/02/14 14:44:56;;;;;;;4.30;3.30;;;9.40;82.40;;;;;;5014983;28;20407;-81
2022/02/14 14:47:22;;;;;;;5.37;3.63;;;9.50;82.10;;;;;;5032821;28;20278;-81
2022/02/14 14:49:48;;;;;;;6.00;3.77;;;9.50;82.20;;;;;;5015113;28;20172;-81
2022/02/14 14:52:13;;;;;;;7.07;3.50;;;9.60;81.20;;;;;;5014780;28;20283;-81
2022/02/14 14:54:39;;;;;;;6.10;3.73;;;9.60;81.20;;;;;;5014581;28;20176;-81
2022/02/14 14:57:05;;;;;;;9.73;3.50;;;9.50;81.10;;;;;;5014405;28;20211;-82
2022/02/14 14:59:33;;;;;;;6.80;3.57;;;9.20;81.40;;;;;;5022827;28;20526;-81
2022/02/14 15:01:59;;;;;;;5.40;3.13;;;9.10;81.60;;;;;;5017585;28;20977;-81
2022/02/14 15:04:24;;;;;;;6.87;3.73;;;8.90;82.30;;;;;;5015186;28;20431;-81
2022/02/14 15:06:51;;;;;;;4.67;3.23;;;8.70;82.90;;;;;;5033555;28;20407;-81
2022/02/14 15:09:16;;;;;;;8.00;4.30;;;8.50;83.20;;;;;;5033398;28;20191;-81
2022/02/14 15:11:42;;;;;;;10.23;3.77;;;8.20;84.10;;;;;;5015238;28;20951;-81
2022/02/14 15:14:09;;;;;;;6.93;4.20;;;8.00;83.80;;;;;;5033599;28;20192;-81
2022/02/14 15:16:37;;;;;;;7.33;4.80;;;7.80;84.80;;;;;;5015732;28;20187;-81
2022/02/14 15:19:07;;;;;;;11.23;6.20;;;7.50;87.70;;;;;;5017540;28;21056;-81
2022/02/14 15:21:33;;;;;;;8.67;6.67;;;7.30;89.60;;;;;;5017661;28;20437;-81
2022/02/14 15:23:58;;;;;;;11.13;7.50;;;6.90;91.10;;;;;;5017792;28;20513;-81
2022/02/14 15:26:24;;;;;;;12.57;6.83;;;6.80;91.70;;;;;;5017959;28;20509;-81
2022/02/14 15:28:49;;;;;;;11.73;7.53;;;6.60;92.30;;;;;;5017807;28;20299;-81
2022/02/14 15:31:15;;;;;;;17.40;11.43;;;6.20;93.70;;;;;;5017743;28;20200;-81
2022/02/14 15:33:41;;;;;;;19.50;9.67;;;6.10;95.10;;;;;;5017510;28;20176;-81
2022/02/14 15:36:07;;;;;;;13.87;8.83;;;6.10;94.90;;;;;;5017355;28;20184;-81
2022/02/14 15:38:33;;;;;;;10.13;6.67;;;5.90;95.80;;;;;;5017516;28;20509;-81
2022/02/14 15:40:58;;;;;;;11.93;7.17;;;5.90;96.10;;;;;;5017646;28;20192;-81
2022/02/14 15:43:25;;;;;;;15.93;9.03;;;5.80;96.30;;;;;;5035716;28;20247;-81
2022/02/14 15:45:52;;;;;;;11.23;6.90;;;5.70;96.30;;;;;;5021762;28;20268;-81
2022/02/14 15:48:17;;;;;;;13.33;5.27;;;5.60;96.30;;;;;;5022308;28;20423;-81
2022/02/14 15:50:43;;;;;;;11.60;7.17;;;5.60;96.30;;;;;;5022377;28;20530;-81
2022/02/14 15:53:08;;;;;;;21.47;10.00;;;5.50;96.30;;;;;;5022512;28;20180;-81
2022/02/14 15:55:34;;;;;;;30.47;18.10;;;5.50;96.30;;;;;;5021571;28;20184;-80
2022/02/14 15:58:03;;;;;;;21.03;11.90;;;5.40;96.30;;;;;;5040587;28;20196;-81
2022/02/14 16:00:28;;;;;;;28.10;17.43;;;5.40;96.30;;;;;;5022015;28;20172;-81
2022/02/14 16:02:54;;;;;;;24.83;14.33;;;5.40;96.30;;;;;;5019094;28;21000;-78
2022/02/14 16:05:20;;;;;;;39.50;23.30;;;5.40;96.30;;;;;;5021731;28;20176;-79
2022/02/14 16:07:46;;;;;;;90.03;40.10;;;5.40;96.30;;;;;;5039852;28;20207;-80
2022/02/14 16:10:12;;;;;;;42.47;23.97;;;5.30;96.30;;;;;;5022235;28;20427;-80
2022/02/14 16:12:38;;;;;;;16.43;10.80;;;5.30;96.30;;;;;;5040176;28;20200;-80
2022/02/14 16:15:05;;;;;;;17.30;9.07;;;5.20;96.30;;;;;;5035896;28;20734;-81
2022/02/14 16:17:31;;;;;;;30.77;13.97;;;5.20;96.30;;;;;;5034436;28;20419;-80
2022/02/14 16:19:58;;;;;;;14.13;7.63;;;5.20;96.30;;;;;;5038091;28;20407;-80
2022/02/14 16:22:24;;;;;;;24.17;9.87;;;5.20;96.30;;;;;;5034483;28;20215;-81
2022/02/14 16:24:50;;;;;;;21.87;11.53;;;5.10;96.30;;;;;;5034254;28;20454;-81
2022/02/14 16:27:15;;;;;;;32.00;16.40;;;5.10;96.30;;;;;;5017124;28;20526;-80
2022/02/14 16:29:42;;;;;;;14.50;9.07;;;5.00;96.30;;;;;;5035940;28;20178;-80
2022/02/14 16:32:11;;;;;;;14.40;8.67;;;5.00;96.30;;;;;;5034621;28;20223;-80
2022/02/14 16:34:36;;;;;;;16.23;7.80;;;5.00;96.30;;;;;;5034543;28;20413;-81
2022/02/14 16:37:02;;;;;;;25.77;12.10;;;5.00;96.30;;;;;;5017110;28;20412;-81
2022/02/14 16:39:27;;;;;;;13.47;8.83;;;4.90;96.30;;;;;;5022753;28;20200;-81
2022/02/14 16:41:53;;;;;;;20.00;10.47;;;4.80;96.30;;;;;;5016299;28;20560;-81
2022/02/14 16:44:19;;;;;;;15.13;9.70;;;4.60;96.30;;;;;;5016486;28;20228;-81
2022/02/14 16:46:44;;;;;;;16.57;11.17;;;4.50;96.30;;;;;;5016461;28;20674;-81
2022/02/14 16:49:10;;;;;;;18.37;10.97;;;4.40;96.30;;;;;;5034614;28;20200;-81
2022/02/14 16:51:37;;;;;;;24.40;11.10;;;4.30;96.30;;;;;;5016719;28;20192;-80
2022/02/14 16:54:03;;;;;;;16.37;9.67;;;4.20;96.30;;;;;;5016617;28;20176;-82
2022/02/14 16:56:29;;;;;;;17.33;10.10;;;4.10;96.30;;;;;;5018637;28;20415;-82
2022/02/14 16:58:56;;;;;;;16.53;10.60;;;4.10;96.30;;;;;;5015989;28;20821;-81
2022/02/14 17:01:22;;;;;;;12.60;8.90;;;4.10;96.30;;;;;;5015592;28;20261;-81
2022/02/14 17:03:48;;;;;;;20.97;8.73;;;4.10;96.30;;;;;;5034674;28;20473;-81
2022/02/14 17:06:13;;;;;;;16.73;9.50;;;4.20;96.30;;;;;;5006521;28;20657;-80
2022/02/14 17:08:39;;;;;;;13.70;8.63;;;4.20;96.30;;;;;;4996940;28;20265;-81
2022/02/14 17:11:05;;;;;;;17.00;9.80;;;4.30;96.30;;;;;;5015525;28;20205;-81
2022/02/14 17:13:31;;;;;;;15.87;9.50;;;4.30;96.30;;;;;;5014383;28;20657;-79
2022/02/14 17:15:56;;;;;;;15.17;9.20;;;4.20;96.30;;;;;;5015541;28;20268;-79
2022/02/14 17:18:26;;;;;;;20.70;11.33;;;4.20;96.30;;;;;;5016560;28;20252;-81
2022/02/14 17:20:52;;;;;;;17.10;10.70;;;4.20;96.30;;;;;;5016352;28;20659;-81
2022/02/14 17:23:18;;;;;;;15.77;9.73;;;4.10;96.30;;;;;;5016873;28;20940;-81
2022/02/14 17:25:44;;;;;;;12.60;9.17;;;4.20;96.30;;;;;;5016795;28;20429;-81
2022/02/14 17:28:10;;;;;;;16.37;9.93;;;4.30;96.30;;;;;;5034579;28;20419;-81
2022/02/14 17:30:35;;;;;;;20.10;11.70;;;4.30;96.30;;;;;;5017228;28;20200;-81
2022/02/14 17:33:01;;;;;;;18.20;11.80;;;4.20;96.30;;;;;;5017293;28;20523;-81
2022/02/14 17:35:26;;;;;;;20.90;10.27;;;4.10;96.30;;;;;;5014715;28;20177;-81
2022/02/14 17:37:52;;;;;;;21.73;11.53;;;4.20;96.30;;;;;;5016488;28;20199;-81
2022/02/14 17:40:18;;;;;;;18.10;11.37;;;4.20;96.30;;;;;;5016213;28;20210;-82
2022/02/14 17:42:43;;;;;;;17.57;10.23;;;4.20;96.30;;;;;;5033113;28;20184;-82
2022/02/14 17:45:11;;;;;;;19.40;9.40;;;4.20;96.30;;;;;;5033963;28;20172;-80
2022/02/14 17:47:38;;;;;;;13.67;8.87;;;4.20;96.30;;;;;;5017754;28;20173;-80
2022/02/14 17:50:04;;;;;;;13.60;9.97;;;4.30;96.30;;;;;;5025429;28;20424;-80
2022/02/14 17:52:29;;;;;;;19.03;11.60;;;4.30;96.30;;;;;;5041938;28;20882;-78
2022/02/14 17:54:55;;;;;;;17.50;10.87;;;4.40;96.30;;;;;;5029193;28;20187;-78
2022/02/14 17:57:21;;;;;;;16.10;9.40;;;4.50;96.30;;;;;;5034299;28;20178;-78
2022/02/14 17:59:49;;;;;;;11.23;7.13;;;4.60;96.30;;;;;;5034675;28;20464;-77
2022/02/14 18:02:15;;;;;;;12.50;8.87;;;4.70;96.30;;;;;;5053519;28;20207;-78
2022/02/14 18:04:40;;;;;;;13.63;9.00;;;4.70;96.30;;;;;;5026293;28;20422;-78
2022/02/14 18:07:06;;;;;;;15.00;10.17;;;4.70;96.30;;;;;;5017741;28;20568;-78
2022/02/14 18:09:32;;;;;;;17.20;10.40;;;4.70;96.30;;;;;;5017354;28;20184;-79
2022/02/14 18:11:59;;;;;;;18.03;8.63;;;4.60;96.30;;;;;;5034614;28;20222;-80
2022/02/14 18:14:32;;;;;;;16.73;9.33;;;4.60;96.30;;;;;;5018373;28;20431;-79
2022/02/14 18:16:58;;;;;;;19.13;9.07;;;4.60;96.30;;;;;;5036316;28;20415;-79